Terminal Aerodrome Forecast
Issued by NWS

Home | Current Version | Previous Version | Text Only | Print | Product List | Glossary On
Versions: 1 2 3 4 5 6 7 8 9 10 11 12 13
000
FTUS42 KMLB 290525
TAFFPR
TAF
KFPR 290525Z 2906/3006 07005KT P6SM SCT040
     FM291400 07011KT P6SM SCT040
     FM291800 07012KT P6SM SCT040
     FM300100 08006KT P6SM SCT035=

USA.gov is the U.S. government's official web portal to all federal, state and local government web resources and services.